Time;durP1;ratioP1;P1;durP2;ratioP2;P2;SDS_P1;SDS_P2;PMS_P1;PMS_P2;Temp;Humidity;BMP_temperature;BMP_pressure;BME280_temperature;BME280_humidity;BME280_pressure;Samples;Min_cycle;Max_cycle;Signal;HPM_P1;HPM_P2
2021/05/26 00:01:21;;;;;;;3.38;1.00;;;18.00;69.30;;;;;;5050764;28;20029;-77
2021/05/26 00:03:47;;;;;;;4.03;1.00;;;17.90;69.30;;;;;;5051699;28;20056;-77
2021/05/26 00:06:12;;;;;;;3.25;1.00;;;17.90;69.30;;;;;;5052019;28;20137;-77
2021/05/26 00:08:38;;;;;;;2.92;1.05;;;17.90;69.40;;;;;;5051992;28;20036;-77
2021/05/26 00:11:08;;;;;;;4.03;0.90;;;17.90;69.40;;;;;;5051757;28;20080;-77
2021/05/26 00:13:34;;;;;;;2.85;1.10;;;17.90;69.40;;;;;;5051474;28;20060;-78
2021/05/26 00:16:00;;;;;;;3.45;1.50;;;17.90;69.40;;;;;;5052151;28;20027;-77
2021/05/26 00:18:26;;;;;;;2.38;1.00;;;17.90;69.40;;;;;;5051863;28;20032;-77
2021/05/26 00:20:52;;;;;;;3.55;0.85;;;17.80;69.40;;;;;;5051974;28;20025;-77
2021/05/26 00:23:19;;;;;;;3.53;1.30;;;17.80;69.50;;;;;;5052164;28;20060;-77
2021/05/26 00:25:45;;;;;;;1.27;0.60;;;17.80;69.60;;;;;;5051426;28;20029;-77
2021/05/26 00:28:11;;;;;;;4.35;1.10;;;17.80;69.60;;;;;;5051812;28;20025;-78
2021/05/26 00:30:46;;;;;;;2.78;0.88;;;17.80;69.60;;;;;;5051052;28;20062;-77
2021/05/26 00:33:12;;;;;;;3.20;0.93;;;17.80;69.60;;;;;;5050344;28;20041;-77
2021/05/26 00:35:37;;;;;;;2.88;1.00;;;17.80;69.70;;;;;;5051506;28;20032;-78
2021/05/26 00:38:04;;;;;;;2.17;0.95;;;17.70;70.40;;;;;;5051371;28;20029;-77
2021/05/26 00:40:29;;;;;;;2.30;0.68;;;17.70;69.70;;;;;;5050573;28;20374;-78
2021/05/26 00:42:55;;;;;;;4.32;1.15;;;17.70;69.80;;;;;;5051070;28;20031;-78
2021/05/26 00:45:21;;;;;;;3.47;0.95;;;17.70;69.80;;;;;;5051496;28;20117;-77
2021/05/26 00:47:48;;;;;;;3.60;1.05;;;17.70;69.80;;;;;;5051746;28;20025;-76
2021/05/26 00:50:21;;;;;;;3.85;0.90;;;17.70;69.80;;;;;;5051169;28;20033;-76
2021/05/26 00:52:48;;;;;;;4.25;0.68;;;17.70;69.80;;;;;;5051387;28;20024;-77
2021/05/26 00:55:17;;;;;;;3.65;1.05;;;17.60;69.80;;;;;;5051300;28;20033;-77
2021/05/26 00:57:43;;;;;;;3.63;1.20;;;17.60;69.80;;;;;;5051257;28;20028;-77
2021/05/26 01:00:13;;;;;;;2.75;0.98;;;17.60;69.90;;;;;;5050823;28;20136;-76
2021/05/26 01:02:39;;;;;;;2.97;0.88;;;17.60;69.90;;;;;;5051121;28;20482;-78
2021/05/26 01:05:07;;;;;;;3.10;1.05;;;17.60;69.90;;;;;;5051079;28;20021;-78
2021/05/26 01:07:32;;;;;;;2.70;0.95;;;17.60;70.00;;;;;;5050665;28;20079;-78
2021/05/26 01:09:58;;;;;;;3.00;0.93;;;17.60;70.00;;;;;;5051185;28;20071;-78
2021/05/26 01:12:25;;;;;;;2.47;0.60;;;17.60;70.00;;;;;;5050662;28;20025;-79
2021/05/26 01:14:50;;;;;;;2.65;0.80;;;17.60;70.00;;;;;;5051173;28;20033;-78
2021/05/26 01:17:16;;;;;;;1.80;0.80;;;17.60;70.10;;;;;;5050848;28;20484;-79
2021/05/26 01:19:42;;;;;;;3.50;1.05;;;17.60;70.00;;;;;;5050611;28;20020;-79
2021/05/26 01:22:08;;;;;;;2.70;0.98;;;17.50;70.00;;;;;;5050486;28;20029;-79
2021/05/26 01:24:34;;;;;;;4.55;1.10;;;17.50;70.00;;;;;;5050784;28;20447;-77
2021/05/26 01:27:00;;;;;;;1.98;0.52;;;17.50;70.10;;;;;;5051070;28;20041;-77
2021/05/26 01:29:26;;;;;;;2.40;0.80;;;17.50;70.00;;;;;;5050407;28;20036;-78
2021/05/26 01:31:53;;;;;;;2.50;1.15;;;17.50;70.00;;;;;;5050324;28;20037;-77
2021/05/26 01:34:20;;;;;;;2.15;0.57;;;17.50;70.10;;;;;;5050698;28;20381;-78
2021/05/26 01:36:46;;;;;;;2.60;0.73;;;17.50;70.00;;;;;;5050916;28;20025;-77
2021/05/26 01:39:13;;;;;;;3.17;0.90;;;17.50;70.00;;;;;;5050951;28;20021;-78
2021/05/26 01:41:39;;;;;;;3.00;1.02;;;17.50;70.10;;;;;;5050521;28;20036;-78
2021/05/26 01:44:05;;;;;;;2.63;0.95;;;17.50;70.10;;;;;;5050788;28;20488;-78
2021/05/26 01:46:30;;;;;;;1.73;0.75;;;17.50;70.10;;;;;;5050615;28;20104;-77
2021/05/26 01:48:56;;;;;;;2.35;0.70;;;17.50;70.10;;;;;;5050638;28;20029;-78
2021/05/26 01:51:22;;;;;;;3.40;0.85;;;17.40;70.20;;;;;;5050494;28;20025;-77
2021/05/26 01:53:50;;;;;;;3.95;1.20;;;17.40;70.30;;;;;;5050998;28;20487;-77
2021/05/26 01:56:25;;;;;;;1.67;0.60;;;17.40;70.30;;;;;;5050926;28;20043;-78
2021/05/26 01:58:52;;;;;;;1.55;0.70;;;17.40;71.10;;;;;;5050996;28;20449;-78
2021/05/26 02:01:22;;;;;;;2.55;0.70;;;17.40;70.40;;;;;;5050025;28;20029;-78
2021/05/26 02:03:49;;;;;;;3.08;0.73;;;17.40;70.40;;;;;;5051196;28;20021;-78
2021/05/26 02:06:15;;;;;;;1.63;0.60;;;17.40;70.40;;;;;;5049195;28;20388;-75
2021/05/26 02:08:44;;;;;;;4.15;0.80;;;17.40;70.50;;;;;;5050460;28;20082;-77
2021/05/26 02:14:20;;;;;;;4.68;0.93;;;17.40;70.40;;;;;;5050009;28;20474;-76
2021/05/26 02:16:46;;;;;;;3.83;1.00;;;17.40;70.50;;;;;;5048705;28;20037;-77
2021/05/26 02:19:11;;;;;;;3.30;0.77;;;17.40;70.50;;;;;;5050613;28;20481;-79
2021/05/26 02:21:37;;;;;;;1.83;0.70;;;17.40;70.50;;;;;;5049791;28;20103;-79
2021/05/26 02:24:03;;;;;;;2.72;0.80;;;17.40;70.60;;;;;;5050121;28;20028;-78
2021/05/26 02:26:28;;;;;;;1.95;0.60;;;17.40;70.60;;;;;;5052808;28;20028;-78
2021/05/26 02:28:55;;;;;;;2.45;0.75;;;17.30;70.50;;;;;;5053984;28;20539;-79
2021/05/26 02:31:21;;;;;;;1.77;0.63;;;17.30;70.50;;;;;;5069185;28;20059;-77
2021/05/26 02:33:46;;;;;;;1.67;0.70;;;17.30;70.50;;;;;;5053870;28;20029;-77
2021/05/26 02:36:12;;;;;;;1.75;0.75;;;17.30;70.50;;;;;;5053150;28;20083;-77
2021/05/26 02:38:38;;;;;;;4.22;0.70;;;17.30;70.50;;;;;;5052569;28;20029;-77
2021/05/26 02:41:04;;;;;;;1.50;0.60;;;17.30;70.50;;;;;;5053554;28;20071;-77
2021/05/26 02:43:29;;;;;;;1.88;0.55;;;17.30;70.50;;;;;;5052273;28;20024;-77
2021/05/26 02:45:55;;;;;;;1.95;0.52;;;17.30;70.60;;;;;;5053149;28;20108;-77
2021/05/26 02:48:20;;;;;;;2.50;0.60;;;17.30;70.60;;;;;;5053973;28;20021;-78
2021/05/26 02:50:47;;;;;;;0.98;0.43;;;17.30;70.60;;;;;;5053779;28;20032;-78
2021/05/26 02:53:12;;;;;;;2.53;0.65;;;17.30;70.70;;;;;;5053004;28;20083;-77
2021/05/26 02:55:38;;;;;;;1.42;0.75;;;17.20;70.60;;;;;;5053385;28;20053;-78
2021/05/26 02:58:04;;;;;;;3.13;0.63;;;17.20;70.60;;;;;;5053319;28;20028;-78
2021/05/26 03:00:29;;;;;;;2.40;0.70;;;17.20;70.60;;;;;;5051877;28;20052;-78
2021/05/26 03:02:55;;;;;;;2.47;0.85;;;17.20;70.70;;;;;;5053442;28;20064;-77
2021/05/26 03:05:22;;;;;;;1.55;0.70;;;17.20;70.70;;;;;;5052675;28;20029;-78
2021/05/26 03:07:48;;;;;;;2.10;0.57;;;17.20;70.70;;;;;;5053346;28;20479;-77
2021/05/26 03:10:15;;;;;;;2.00;0.70;;;17.20;70.70;;;;;;5053232;28;20033;-78
2021/05/26 03:12:41;;;;;;;1.55;0.80;;;17.20;70.70;;;;;;5052748;28;20025;-78
2021/05/26 03:15:10;;;;;;;1.63;0.65;;;17.20;70.80;;;;;;5053259;28;20036;-77
2021/05/26 03:17:37;;;;;;;5.13;1.02;;;17.20;70.80;;;;;;5052910;28;20048;-77
2021/05/26 03:20:08;;;;;;;2.67;0.73;;;17.20;70.90;;;;;;5053142;28;20036;-76
2021/05/26 03:22:34;;;;;;;2.28;0.65;;;17.20;70.90;;;;;;5052798;28;20029;-76
2021/05/26 03:25:00;;;;;;;1.35;0.60;;;17.20;70.90;;;;;;5051662;28;20029;-76
2021/05/26 03:27:34;;;;;;;1.95;0.77;;;17.20;70.90;;;;;;5052586;28;20538;-77
2021/05/26 03:30:00;;;;;;;1.85;0.50;;;17.20;70.90;;;;;;5052743;28;20029;-77
2021/05/26 03:32:26;;;;;;;2.90;0.70;;;17.10;71.60;;;;;;5052605;28;20492;-76
2021/05/26 03:34:52;;;;;;;2.35;0.77;;;17.10;70.90;;;;;;5052189;28;20056;-76
2021/05/26 03:37:17;;;;;;;1.33;0.68;;;17.10;70.90;;;;;;5051859;28;20079;-76
2021/05/26 03:39:43;;;;;;;1.83;0.68;;;17.10;71.00;;;;;;5051864;28;20036;-78
2021/05/26 03:42:09;;;;;;;1.70;0.68;;;17.10;71.00;;;;;;5052262;28;20060;-76
2021/05/26 03:44:34;;;;;;;2.15;0.75;;;17.10;71.00;;;;;;5052608;28;20029;-78
2021/05/26 03:47:00;;;;;;;2.53;0.93;;;17.10;71.00;;;;;;5051059;28;20112;-77
2021/05/26 03:49:26;;;;;;;2.80;0.77;;;17.10;71.00;;;;;;5051719;28;20388;-79
2021/05/26 03:51:51;;;;;;;1.77;0.70;;;17.10;71.00;;;;;;5052778;28;20029;-77
2021/05/26 03:54:17;;;;;;;2.53;0.80;;;17.10;71.10;;;;;;5052023;28;20116;-77
2021/05/26 03:56:43;;;;;;;1.63;0.52;;;17.10;71.10;;;;;;5052416;28;20037;-77
2021/05/26 03:59:09;;;;;;;1.08;0.52;;;17.00;71.00;;;;;;5051923;28;20025;-77
2021/05/26 04:01:36;;;;;;;1.80;0.70;;;17.10;71.10;;;;;;5052345;28;20028;-77
2021/05/26 04:04:02;;;;;;;1.35;0.50;;;17.10;71.10;;;;;;5051937;28;20074;-77
2021/05/26 04:06:28;;;;;;;2.42;0.80;;;17.10;71.10;;;;;;5051622;28;20037;-77
2021/05/26 04:08:53;;;;;;;2.25;0.52;;;17.00;71.00;;;;;;5051750;28;20170;-76
2021/05/26 04:11:19;;;;;;;1.88;0.82;;;17.00;71.00;;;;;;5052112;28;20064;-77
2021/05/26 04:13:45;;;;;;;1.77;0.60;;;17.00;71.00;;;;;;5051839;28;20033;-78
2021/05/26 04:16:10;;;;;;;1.23;0.60;;;17.00;71.10;;;;;;5051612;28;20029;-77
2021/05/26 04:18:37;;;;;;;0.98;0.50;;;17.10;71.20;;;;;;5051719;28;20147;-76
2021/05/26 04:21:03;;;;;;;2.05;0.75;;;17.00;71.10;;;;;;5051834;28;20048;-76
2021/05/26 04:23:29;;;;;;;1.50;0.68;;;17.00;71.20;;;;;;5051228;28;20021;-76
2021/05/26 04:25:54;;;;;;;1.88;0.77;;;17.00;71.20;;;;;;5051916;28;20108;-77
2021/05/26 04:28:22;;;;;;;1.00;0.60;;;17.00;71.20;;;;;;5051820;28;20477;-76
2021/05/26 04:30:48;;;;;;;1.42;0.63;;;17.00;71.10;;;;;;5051636;28;20063;-76
2021/05/26 04:33:14;;;;;;;1.70;0.57;;;17.00;71.20;;;;;;5051218;28;20387;-77
2021/05/26 04:35:40;;;;;;;1.67;0.82;;;17.00;71.20;;;;;;5050615;28;20423;-76
2021/05/26 04:38:05;;;;;;;1.85;0.50;;;17.00;71.20;;;;;;5049499;28;20124;-77
2021/05/26 04:40:31;;;;;;;1.77;0.60;;;17.00;71.20;;;;;;5050932;28;20033;-77
2021/05/26 04:42:57;;;;;;;2.55;0.88;;;17.00;71.30;;;;;;5051570;28;20056;-76
2021/05/26 04:45:22;;;;;;;1.38;0.70;;;17.00;71.30;;;;;;5051229;28;20047;-76
2021/05/26 04:47:48;;;;;;;1.05;0.68;;;17.00;71.30;;;;;;5050539;28;20040;-76
2021/05/26 04:50:14;;;;;;;1.70;0.60;;;16.90;71.30;;;;;;5051074;28;20077;-76
2021/05/26 04:52:40;;;;;;;1.13;0.60;;;17.00;71.40;;;;;;5051133;28;20374;-76
2021/05/26 04:55:06;;;;;;;1.80;0.50;;;17.00;71.40;;;;;;5051318;28;20051;-76
2021/05/26 04:57:31;;;;;;;2.40;0.60;;;16.90;71.40;;;;;;5051172;28;20021;-76
2021/05/26 04:59:57;;;;;;;2.65;0.75;;;16.90;71.40;;;;;;5050583;28;20033;-76
2021/05/26 05:02:23;;;;;;;2.60;0.68;;;16.90;71.40;;;;;;5050978;28;20381;-76
2021/05/26 05:04:48;;;;;;;0.82;0.40;;;16.90;71.40;;;;;;5051190;28;20083;-76
2021/05/26 05:07:14;;;;;;;1.90;0.50;;;16.90;71.40;;;;;;5051216;28;20381;-77
2021/05/26 05:09:39;;;;;;;1.70;0.60;;;16.90;71.50;;;;;;5050936;28;20025;-75
2021/05/26 05:12:06;;;;;;;0.85;0.50;;;16.90;71.50;;;;;;5052799;28;20078;-76
2021/05/26 05:14:31;;;;;;;1.42;0.60;;;17.00;71.60;;;;;;5050311;28;20028;-73
2021/05/26 05:16:57;;;;;;;1.60;0.60;;;16.90;71.50;;;;;;5050951;28;20019;-75
2021/05/26 05:19:22;;;;;;;1.73;0.50;;;16.90;71.60;;;;;;5049217;28;20057;-77
2021/05/26 05:21:48;;;;;;;1.45;0.55;;;16.90;72.40;;;;;;5050422;28;20067;-76
2021/05/26 05:24:14;;;;;;;1.20;0.88;;;16.90;71.70;;;;;;5049742;28;20543;-76
2021/05/26 05:26:39;;;;;;;2.13;1.02;;;16.90;71.70;;;;;;5050147;28;20029;-76
2021/05/26 05:29:05;;;;;;;1.73;0.68;;;16.90;71.70;;;;;;5050374;28;20029;-77
2021/05/26 05:31:31;;;;;;;2.28;0.73;;;16.90;71.70;;;;;;5050475;28;20059;-76
2021/05/26 05:33:57;;;;;;;3.10;0.50;;;16.90;71.70;;;;;;5050509;28;20045;-76
2021/05/26 05:36:23;;;;;;;1.52;0.70;;;16.90;71.80;;;;;;5050245;28;20037;-77
2021/05/26 05:38:49;;;;;;;1.88;0.60;;;16.90;71.80;;;;;;5050962;28;20052;-75
2021/05/26 05:41:15;;;;;;;2.70;0.73;;;16.90;71.80;;;;;;5050576;28;20048;-77
2021/05/26 05:43:40;;;;;;;1.73;0.40;;;16.90;71.90;;;;;;5049182;28;20067;-76
2021/05/26 05:46:06;;;;;;;1.38;0.50;;;16.90;71.90;;;;;;5050798;28;20480;-76
2021/05/26 05:48:32;;;;;;;1.48;0.70;;;16.90;71.90;;;;;;5050739;28;20021;-78
2021/05/26 05:50:58;;;;;;;1.02;0.60;;;16.90;71.90;;;;;;5050094;28;20029;-77
2021/05/26 05:53:23;;;;;;;1.25;0.70;;;16.90;71.90;;;;;;5050740;28;20029;-77
2021/05/26 05:55:49;;;;;;;1.88;0.80;;;16.90;71.90;;;;;;5049857;28;20116;-76
2021/05/26 05:58:25;;;;;;;1.52;0.60;;;16.90;72.70;;;;;;5048819;28;20481;-75
2021/05/26 06:00:51;;;;;;;1.95;0.50;;;16.90;72.00;;;;;;5053974;28;20428;-76
2021/05/26 06:03:16;;;;;;;1.42;0.70;;;16.90;72.10;;;;;;5053421;28;20029;-76
2021/05/26 06:05:42;;;;;;;1.13;0.60;;;16.90;72.40;;;;;;5053724;28;20031;-76
2021/05/26 06:08:08;;;;;;;1.95;0.60;;;16.90;72.50;;;;;;5053822;28;20519;-77
2021/05/26 06:10:34;;;;;;;1.42;0.50;;;16.90;72.60;;;;;;5053462;28;20033;-78
2021/05/26 06:13:02;;;;;;;3.20;0.50;;;16.90;72.80;;;;;;5053563;28;20037;-78
2021/05/26 06:15:28;;;;;;;0.98;0.55;;;17.00;72.70;;;;;;5053399;28;20075;-78
2021/05/26 06:17:57;;;;;;;3.47;0.90;;;17.00;72.80;;;;;;5054095;28;20033;-76
2021/05/26 06:20:22;;;;;;;2.35;1.60;;;17.00;73.00;;;;;;5054173;28;20113;-78
2021/05/26 06:22:48;;;;;;;3.05;1.30;;;17.10;73.70;;;;;;5053586;28;20108;-77
2021/05/26 06:25:14;;;;;;;4.60;2.03;;;17.30;73.80;;;;;;5052253;28;20036;-76
2021/05/26 06:27:40;;;;;;;9.15;6.00;;;17.40;73.90;;;;;;5052924;28;20028;-77
2021/05/26 06:30:06;;;;;;;13.13;5.90;;;17.50;73.60;;;;;;5050951;28;20104;-76
2021/05/26 06:32:32;;;;;;;14.68;6.47;;;17.70;73.90;;;;;;5053319;28;20036;-77
2021/05/26 06:34:58;;;;;;;7.70;4.25;;;17.70;73.60;;;;;;5053814;28;20037;-77
2021/05/26 06:37:23;;;;;;;15.55;4.93;;;17.80;73.70;;;;;;5053293;28;20435;-77
2021/05/26 06:39:49;;;;;;;6.05;3.22;;;18.00;73.70;;;;;;5053055;28;20063;-77
2021/05/26 06:42:15;;;;;;;5.85;2.72;;;18.00;73.30;;;;;;5051936;28;20074;-77
2021/05/26 06:44:40;;;;;;;5.40;2.60;;;18.10;73.20;;;;;;5051158;28;20082;-76
2021/05/26 06:47:08;;;;;;;5.97;2.75;;;18.10;72.90;;;;;;5052638;28;20029;-73
2021/05/26 06:49:33;;;;;;;4.47;2.20;;;18.20;72.80;;;;;;5052928;28;20082;-75
2021/05/26 06:51:59;;;;;;;9.18;2.60;;;18.30;72.70;;;;;;5053395;28;20025;-74
2021/05/26 06:54:25;;;;;;;4.72;2.53;;;18.40;72.30;;;;;;5052568;28;20037;-73
2021/05/26 06:56:50;;;;;;;5.45;2.10;;;18.40;72.00;;;;;;5053154;28;20552;-74
2021/05/26 06:59:16;;;;;;;3.22;1.70;;;18.40;71.80;;;;;;5052676;28;20397;-72
2021/05/26 07:01:42;;;;;;;6.65;2.40;;;18.40;71.60;;;;;;5053306;28;20366;-74
2021/05/26 07:04:07;;;;;;;3.58;1.58;;;18.50;71.60;;;;;;5051485;28;20051;-73
2021/05/26 07:06:33;;;;;;;4.53;1.75;;;18.50;71.50;;;;;;5052701;28;20033;-74
2021/05/26 07:08:59;;;;;;;3.88;1.45;;;18.50;71.30;;;;;;5051860;28;20041;-74
2021/05/26 07:11:24;;;;;;;3.17;1.55;;;18.50;71.10;;;;;;5051500;28;20031;-75
2021/05/26 07:13:50;;;;;;;6.22;1.50;;;18.60;70.80;;;;;;5051445;28;20033;-73
2021/05/26 07:16:15;;;;;;;2.50;1.45;;;18.60;70.80;;;;;;5052430;28;20026;-73
2021/05/26 07:18:46;;;;;;;3.10;1.35;;;18.60;70.80;;;;;;5052891;28;20040;-74
2021/05/26 07:21:12;;;;;;;3.30;1.48;;;18.60;70.80;;;;;;5051927;28;20370;-74
2021/05/26 07:23:38;;;;;;;5.78;1.77;;;18.50;70.60;;;;;;5053056;28;20033;-74
2021/05/26 07:26:03;;;;;;;3.70;1.73;;;18.60;70.80;;;;;;5052315;28;20108;-74
2021/05/26 07:28:29;;;;;;;5.25;1.48;;;18.60;70.80;;;;;;5052582;28;20036;-74
2021/05/26 07:30:54;;;;;;;3.42;1.60;;;18.50;70.70;;;;;;5052319;28;20495;-74
2021/05/26 07:33:21;;;;;;;3.80;1.15;;;18.60;70.70;;;;;;5052071;28;20040;-75
2021/05/26 07:35:46;;;;;;;5.45;1.50;;;18.60;70.80;;;;;;5052586;28;20032;-74
2021/05/26 07:38:13;;;;;;;3.90;0.90;;;18.50;70.70;;;;;;5052208;28;20392;-76
2021/05/26 07:40:39;;;;;;;7.75;1.33;;;18.50;70.60;;;;;;5051411;28;20028;-75
2021/05/26 07:43:04;;;;;;;5.95;1.80;;;18.50;70.60;;;;;;5051225;28;20033;-76
2021/05/26 07:45:30;;;;;;;4.45;1.40;;;18.50;70.50;;;;;;5050183;28;20040;-75
2021/05/26 07:47:56;;;;;;;4.60;1.25;;;18.60;70.50;;;;;;5053034;28;20042;-75
2021/05/26 07:50:21;;;;;;;2.88;1.40;;;18.60;70.50;;;;;;5051824;28;20104;-75
2021/05/26 07:52:47;;;;;;;4.25;1.67;;;18.60;70.50;;;;;;5052225;28;20036;-75
2021/05/26 07:55:14;;;;;;;3.53;1.52;;;18.60;70.60;;;;;;5052204;28;20035;-75
2021/05/26 07:57:40;;;;;;;3.50;1.58;;;18.60;70.60;;;;;;5050868;28;20100;-75
2021/05/26 08:00:07;;;;;;;3.88;1.60;;;18.60;70.60;;;;;;5051522;28;20111;-74
2021/05/26 08:02:32;;;;;;;3.08;1.27;;;18.50;70.60;;;;;;5052309;28;20033;-74
2021/05/26 08:04:58;;;;;;;3.38;1.60;;;18.60;70.70;;;;;;5052415;28;20032;-76
2021/05/26 08:07:23;;;;;;;2.85;1.33;;;18.50;70.50;;;;;;5051368;28;20037;-76
2021/05/26 08:09:49;;;;;;;3.58;1.77;;;18.50;70.40;;;;;;5051950;28;20169;-75
2021/05/26 08:12:15;;;;;;;2.70;1.13;;;18.50;70.30;;;;;;5051487;28;20083;-75
2021/05/26 08:14:41;;;;;;;5.00;1.20;;;18.50;70.50;;;;;;5051562;28;20036;-76
2021/05/26 08:17:07;;;;;;;3.55;1.25;;;18.50;70.50;;;;;;5051620;28;20029;-75
2021/05/26 08:19:33;;;;;;;2.42;1.20;;;18.50;70.40;;;;;;5052042;28;20062;-75
2021/05/26 08:21:58;;;;;;;2.30;1.23;;;18.50;70.40;;;;;;5051915;28;20168;-75
2021/05/26 08:24:24;;;;;;;2.88;1.27;;;18.50;70.30;;;;;;5050574;28;20032;-75
2021/05/26 08:26:51;;;;;;;4.68;1.52;;;18.50;70.40;;;;;;5051396;28;20052;-76
2021/05/26 08:29:17;;;;;;;3.45;1.52;;;18.40;70.20;;;;;;5050738;28;20128;-75
2021/05/26 08:31:44;;;;;;;4.88;1.40;;;18.50;70.30;;;;;;5051138;28;20377;-75
2021/05/26 08:34:09;;;;;;;5.05;1.63;;;18.50;70.30;;;;;;5051256;28;20450;-76
2021/05/26 08:36:35;;;;;;;4.35;1.42;;;18.50;70.30;;;;;;5050103;28;20025;-76
2021/05/26 08:39:01;;;;;;;4.50;1.65;;;18.50;70.30;;;;;;5031410;28;20500;-76
2021/05/26 08:41:28;;;;;;;3.33;1.30;;;18.40;70.30;;;;;;5033028;28;20075;-74
2021/05/26 08:43:54;;;;;;;3.95;1.27;;;18.40;70.50;;;;;;5038436;28;20032;-76
2021/05/26 08:46:22;;;;;;;3.72;1.58;;;18.40;70.60;;;;;;5050932;28;20495;-76
2021/05/26 08:48:51;;;;;;;3.33;1.40;;;18.40;70.60;;;;;;5050813;28;20492;-75
2021/05/26 08:51:18;;;;;;;2.55;1.30;;;18.50;70.60;;;;;;5050717;28;20021;-75
2021/05/26 08:53:44;;;;;;;4.25;1.00;;;18.40;70.60;;;;;;5051234;28;20436;-75
2021/05/26 08:56:09;;;;;;;4.78;1.30;;;18.40;70.60;;;;;;5050849;28;20025;-74
2021/05/26 08:58:42;;;;;;;3.45;1.30;;;18.40;70.60;;;;;;5049517;28;20079;-75
2021/05/26 09:01:08;;;;;;;7.68;1.65;;;18.40;70.60;;;;;;5050227;28;20029;-75
2021/05/26 09:03:35;;;;;;;4.85;1.77;;;18.40;70.70;;;;;;5051310;28;20037;-74
2021/05/26 09:06:01;;;;;;;5.43;1.80;;;18.40;70.60;;;;;;5050687;28;20057;-76
2021/05/26 09:08:27;;;;;;;4.43;1.60;;;18.40;70.70;;;;;;5050549;28;20048;-75
2021/05/26 09:11:00;;;;;;;2.47;1.27;;;18.40;70.70;;;;;;5050892;28;20021;-76
2021/05/26 09:13:36;;;;;;;7.43;1.92;;;18.40;71.50;;;;;;5049892;28;20082;-76
2021/05/26 09:16:07;;;;;;;5.47;1.80;;;18.40;70.90;;;;;;5050347;28;20059;-76
2021/05/26 09:18:59;;;;;;;4.55;1.75;;;18.40;71.00;;;;;;5050620;28;20108;-75
2021/05/26 09:21:42;;;;;;;5.82;1.75;;;18.40;71.00;;;;;;5050791;28;20021;-75
2021/05/26 09:24:20;;;;;;;2.85;1.20;;;18.40;71.00;;;;;;5050950;28;20107;-76
2021/05/26 09:26:49;;;;;;;3.70;1.67;;;18.40;71.00;;;;;;5050169;28;20021;-76
2021/05/26 09:29:14;;;;;;;4.28;1.50;;;18.40;70.90;;;;;;5050151;28;20033;-76
2021/05/26 09:31:40;;;;;;;4.68;1.52;;;18.40;70.80;;;;;;5050342;28;20031;-76
2021/05/26 09:34:06;;;;;;;3.50;2.30;;;18.40;70.80;;;;;;5051361;28;20056;-75
2021/05/26 09:36:32;;;;;;;4.03;1.58;;;18.40;70.80;;;;;;5055008;28;20021;-72
2021/05/26 09:39:04;;;;;;;3.22;1.30;;;18.40;70.80;;;;;;5054142;28;20059;-76
2021/05/26 09:41:35;;;;;;;3.97;1.63;;;18.40;70.90;;;;;;5054406;28;20025;-76
2021/05/26 09:44:02;;;;;;;5.07;1.60;;;18.40;70.90;;;;;;5055171;28;20024;-76
2021/05/26 09:46:37;;;;;;;6.72;1.80;;;18.40;70.90;;;;;;5053973;28;20021;-77
2021/05/26 09:49:17;;;;;;;4.10;1.33;;;18.40;70.80;;;;;;5054914;28;20103;-74
2021/05/26 09:51:47;;;;;;;3.58;1.35;;;18.40;71.50;;;;;;5054390;28;20092;-76
2021/05/26 09:54:14;;;;;;;4.35;1.67;;;18.40;72.60;;;;;;5054002;28;20504;-76
2021/05/26 09:56:41;;;;;;;4.93;1.58;;;18.40;72.50;;;;;;5054019;28;20104;-77
2021/05/26 09:59:08;;;;;;;4.68;1.67;;;18.50;74.40;;;;;;5053640;28;20074;-75
2021/05/26 10:01:35;;;;;;;4.95;1.60;;;18.50;72.50;;;;;;5054220;28;20436;-73
2021/05/26 10:04:01;;;;;;;4.85;1.38;;;18.50;72.50;;;;;;5034767;28;20501;-76
2021/05/26 10:06:29;;;;;;;4.88;1.55;;;18.50;72.40;;;;;;5034432;28;20112;-76
2021/05/26 10:08:56;;;;;;;3.75;1.85;;;18.40;73.10;;;;;;5034340;28;20025;-75
2021/05/26 10:11:26;;;;;;;7.30;1.70;;;18.50;73.40;;;;;;5039796;28;20028;-77
2021/05/26 10:13:52;;;;;;;4.90;1.70;;;18.50;74.00;;;;;;5054208;28;20029;-76
2021/05/26 10:16:19;;;;;;;4.13;1.50;;;18.50;74.50;;;;;;5053709;28;20018;-76
2021/05/26 10:18:48;;;;;;;5.15;1.38;;;18.50;73.40;;;;;;5054274;28;20399;-77
2021/05/26 10:21:16;;;;;;;3.38;1.30;;;18.50;73.40;;;;;;5053951;28;20078;-77
2021/05/26 10:23:42;;;;;;;5.60;1.85;;;18.50;73.20;;;;;;5053445;28;20037;-76
2021/05/26 10:26:08;;;;;;;3.75;1.30;;;18.50;72.30;;;;;;5053424;28;20037;-75
2021/05/26 10:28:34;;;;;;;5.18;1.13;;;18.50;72.60;;;;;;5053662;28;20029;-76
2021/05/26 10:31:02;;;;;;;4.22;1.50;;;18.50;72.70;;;;;;5053424;28;20025;-75
2021/05/26 10:33:39;;;;;;;4.13;1.20;;;18.50;71.70;;;;;;5053197;28;20040;-77
2021/05/26 10:36:08;;;;;;;4.50;1.60;;;18.50;71.30;;;;;;5053489;28;20493;-79
2021/05/26 10:38:54;;;;;;;3.78;1.25;;;18.50;71.70;;;;;;5053649;28;20025;-77
2021/05/26 10:41:20;;;;;;;4.95;1.60;;;18.50;71.60;;;;;;5053247;28;20051;-77
2021/05/26 10:43:56;;;;;;;6.38;1.55;;;18.50;71.50;;;;;;5053854;28;20492;-77
2021/05/26 10:46:41;;;;;;;3.08;1.13;;;18.50;71.30;;;;;;5050748;28;20104;-76
2021/05/26 10:49:08;;;;;;;4.00;1.17;;;18.50;70.90;;;;;;5050225;28;20115;-75
2021/05/26 10:51:52;;;;;;;5.93;1.33;;;18.60;70.30;;;;;;5050957;28;20032;-74
2021/05/26 10:54:39;;;;;;;5.00;1.17;;;18.60;70.00;;;;;;5050735;28;20041;-75
2021/05/26 10:57:09;;;;;;;4.22;1.50;;;18.60;69.90;;;;;;5049201;28;20477;-74
2021/05/26 10:59:35;;;;;;;5.20;1.15;;;18.70;70.30;;;;;;5051063;28;20036;-75
2021/05/26 11:02:10;;;;;;;5.75;1.30;;;18.80;71.20;;;;;;5049469;28;20025;-74
2021/05/26 11:04:40;;;;;;;3.75;1.33;;;18.80;72.80;;;;;;5051415;28;20041;-74
2021/05/26 11:07:21;;;;;;;5.07;1.20;;;18.90;73.10;;;;;;5051713;28;20036;-75
2021/05/26 11:09:54;;;;;;;6.10;1.60;;;19.00;74.30;;;;;;5049761;28;20044;-75
2021/05/26 11:12:19;;;;;;;2.92;1.10;;;19.10;74.20;;;;;;5051379;28;20496;-74
2021/05/26 11:14:47;;;;;;;3.85;0.93;;;19.20;73.80;;;;;;5051676;28;20029;-75
2021/05/26 11:17:14;;;;;;;4.28;1.30;;;19.30;73.30;;;;;;5051795;28;20021;-73
2021/05/26 11:19:40;;;;;;;8.32;2.10;;;19.40;72.90;;;;;;5051253;28;20040;-76
2021/05/26 11:22:14;;;;;;;9.75;2.10;;;19.40;73.30;;;;;;5051266;28;20024;-74
2021/05/26 11:24:43;;;;;;;12.85;3.00;;;19.50;73.70;;;;;;5051722;28;20021;-74
2021/05/26 11:27:21;;;;;;;20.70;2.90;;;19.60;73.70;;;;;;5050812;28;20025;-73
2021/05/26 11:29:51;;;;;;;20.23;4.32;;;19.60;73.30;;;;;;5050621;28;20119;-74
2021/05/26 11:32:20;;;;;;;19.70;4.40;;;19.70;73.20;;;;;;5050991;28;20049;-74
2021/05/26 11:35:06;;;;;;;15.85;3.53;;;19.80;72.80;;;;;;5050564;28;20032;-75
2021/05/26 11:37:40;;;;;;;13.85;3.05;;;19.90;72.80;;;;;;5048780;28;20051;-74
2021/05/26 11:40:28;;;;;;;10.95;2.72;;;19.90;72.30;;;;;;5051387;28;20123;-74
2021/05/26 11:42:56;;;;;;;7.95;2.75;;;20.10;72.20;;;;;;5050927;28;20032;-74
2021/05/26 11:45:22;;;;;;;16.55;3.65;;;20.10;72.10;;;;;;5047744;28;20113;-74
2021/05/26 11:47:55;;;;;;;11.05;2.60;;;20.20;72.00;;;;;;5050954;28;20040;-74
2021/05/26 11:50:23;;;;;;;6.18;2.00;;;20.20;71.80;;;;;;5050305;28;20025;-74
2021/05/26 11:53:14;;;;;;;8.02;2.17;;;20.30;72.00;;;;;;5050740;28;20028;-76
2021/05/26 11:55:43;;;;;;;10.10;2.30;;;20.30;71.80;;;;;;5049536;28;20079;-75
2021/05/26 11:58:09;;;;;;;13.88;2.40;;;20.40;71.70;;;;;;5047666;28;20515;-75
2021/05/26 12:00:36;;;;;;;6.53;1.80;;;20.50;71.50;;;;;;5050553;28;20021;-75
2021/05/26 12:03:09;;;;;;;9.13;2.13;;;20.50;71.30;;;;;;5050170;28;20510;-75
2021/05/26 12:05:42;;;;;;;6.18;2.15;;;20.60;71.20;;;;;;5050350;28;20032;-74
2021/05/26 12:08:21;;;;;;;7.70;1.98;;;20.60;71.00;;;;;;5049583;28;20033;-74
2021/05/26 12:11:01;;;;;;;6.80;1.33;;;20.60;70.90;;;;;;5048950;28;20104;-76
2021/05/26 12:13:32;;;;;;;7.50;1.98;;;20.70;70.80;;;;;;5051689;28;20032;-75
2021/05/26 12:16:01;;;;;;;7.55;1.65;;;20.80;70.70;;;;;;5051684;28;20025;-75
2021/05/26 12:18:28;;;;;;;7.45;2.03;;;20.80;70.50;;;;;;5051801;28;20028;-75
2021/05/26 12:20:55;;;;;;;8.38;1.30;;;20.90;70.40;;;;;;5055080;28;20028;-75
2021/05/26 12:23:58;;;;;;;5.85;1.52;;;20.90;70.20;;;;;;5051553;28;20087;-75
2021/05/26 12:26:35;;;;;;;7.55;2.08;;;21.00;70.10;;;;;;5068392;28;20493;-75
2021/05/26 12:29:09;;;;;;;6.03;1.65;;;21.10;69.80;;;;;;5051714;28;20108;-74
2021/05/26 12:31:36;;;;;;;4.60;1.30;;;21.10;69.50;;;;;;5051991;28;20029;-75
2021/05/26 12:34:02;;;;;;;4.60;1.20;;;21.20;69.30;;;;;;5051848;28;20488;-74
2021/05/26 12:36:30;;;;;;;7.20;1.52;;;21.10;69.20;;;;;;5050967;28;20036;-75
2021/05/26 12:39:04;;;;;;;4.22;1.80;;;21.10;69.20;;;;;;5051612;28;20098;-75
2021/05/26 12:41:34;;;;;;;4.25;1.20;;;21.10;69.30;;;;;;5051653;28;20497;-75
2021/05/26 12:44:21;;;;;;;5.30;1.70;;;21.10;69.30;;;;;;5051626;28;20056;-75
2021/05/26 12:46:52;;;;;;;6.63;1.10;;;21.10;70.10;;;;;;5048888;28;20064;-75
2021/05/26 12:52:12;;;;;;;7.43;1.52;;;21.00;69.10;;;;;;5051409;28;20395;-74
2021/05/26 12:54:48;;;;;;;7.72;1.30;;;21.00;69.10;;;;;;5051250;28;20090;-75